コモドロリバダビア の空港の天気 - METARとTAF

Comodoro Rivadavia Aerodrome ( SAVC / CRD ) - アルゼンチン チュブ州コモドロリバダビア
飛行場実況気象(Metar)
観測時間08/11 03:00 ART (08/11 06:00 UTC)
風向・風速西 10m/s
視程10km以上
天気現象
なし
気温6℃
湿度49%
気圧1010hPa
METARSAVC 110600Z 27019KT CAVOK 06/M04 Q1010
過去の天気等 Google飛行場航空写真 Wunderground天気予報

過去48時間のMETAR

飛行場予報(TAF)
発表時間: 8/11 02:00 ART (8/11 05:00 UTC)
予報対象時間: 11日3時 ART ~ 12日3時 ART
風向・風速西 10m/s 瞬間風速 15m/s
視程10km以上
なし
11日3時 ART ~ 11日7時 ART に一時的に
風向・風速西 8m/s
11日10時 ART ~ 11日17時 ART に一時的に
風向・風速西 15m/s 瞬間風速 22m/s
TAF SAVC 110500Z 1106/1206 27020G30KT CAVOK TX13/1119Z TN03/1110Z
TEMPO 1106/1110 27015KT
TEMPO 1113/1120 27030G43KT